createdAt,value
2022-08-23T00:00:53.110Z,18.90
2022-08-23T00:03:20.326Z,18.90
2022-08-23T00:05:47.942Z,18.80
2022-08-23T00:08:15.332Z,18.80
2022-08-23T00:10:42.426Z,18.80
2022-08-23T00:13:47.175Z,18.80
2022-08-23T00:18:59.205Z,18.80
2022-08-23T00:21:26.179Z,18.70
2022-08-23T00:23:53.184Z,18.70
2022-08-23T00:26:20.647Z,18.70
2022-08-23T00:28:49.108Z,18.70
2022-08-23T00:31:18.843Z,18.60
2022-08-23T00:33:45.982Z,18.60
2022-08-23T00:41:18.496Z,18.60
2022-08-23T00:44:04.482Z,18.50
2022-08-23T00:47:05.129Z,18.50
2022-08-23T00:49:35.407Z,18.50
2022-08-23T00:52:45.992Z,18.50
2022-08-23T00:55:14.443Z,18.40
2022-08-23T01:01:02.217Z,18.40
2022-08-23T01:03:38.707Z,18.40
2022-08-23T01:06:22.376Z,18.40
2022-08-23T01:08:56.647Z,18.50
2022-08-23T01:11:32.794Z,18.30
2022-08-23T01:14:11.274Z,18.30
2022-08-23T01:20:02.875Z,18.30
2022-08-23T01:22:41.919Z,18.20
2022-08-23T01:25:11.971Z,18.20
2022-08-23T01:27:45.328Z,18.20
2022-08-23T01:30:20.784Z,18.20
2022-08-23T01:32:54.767Z,18.20
2022-08-23T01:35:31.022Z,18.10
2022-08-23T01:43:01.644Z,18.00
2022-08-23T01:45:31.053Z,18.00
2022-08-23T01:47:59.310Z,18.00
2022-08-23T01:50:28.118Z,18.00
2022-08-23T01:52:57.226Z,18.00
2022-08-23T01:55:26.416Z,18.00
2022-08-23T01:57:56.565Z,18.00
2022-08-23T02:04:59.268Z,18.00
2022-08-23T02:07:28.498Z,18.00
2022-08-23T02:09:55.965Z,17.90
2022-08-23T02:12:23.400Z,17.90
2022-08-23T02:14:56.453Z,17.90
2022-08-23T02:17:25.890Z,17.90
2022-08-23T02:19:53.560Z,18.00
2022-08-23T02:25:10.874Z,18.00
2022-08-23T02:27:39.092Z,18.10
2022-08-23T02:30:13.254Z,17.90
2022-08-23T02:32:41.733Z,18.10
2022-08-23T02:35:10.638Z,17.90
2022-08-23T02:37:38.580Z,17.90
2022-08-23T02:40:06.708Z,17.80
2022-08-23T02:47:39.239Z,17.80
2022-08-23T02:50:14.458Z,17.60
2022-08-23T02:52:41.176Z,17.60
2022-08-23T02:55:08.877Z,17.60
2022-08-23T02:57:36.282Z,17.60
2022-08-23T03:00:05.207Z,17.70
2022-08-23T03:02:32.960Z,17.60
2022-08-23T03:08:23.511Z,17.60
2022-08-23T03:10:52.180Z,17.50
2022-08-23T03:13:20.335Z,17.70
2022-08-23T03:15:49.659Z,17.70
2022-08-23T03:18:17.171Z,17.70
2022-08-23T03:20:44.070Z,17.70
2022-08-23T03:23:12.316Z,17.70
2022-08-23T03:28:17.656Z,17.70
2022-08-23T03:30:45.897Z,17.70
2022-08-23T03:33:13.338Z,17.70
2022-08-23T03:35:41.566Z,17.70
2022-08-23T03:38:13.300Z,17.80
2022-08-23T03:40:41.555Z,17.80
2022-08-23T03:43:09.052Z,17.80
2022-08-23T03:49:16.252Z,17.80
2022-08-23T03:51:55.665Z,17.80
2022-08-23T03:54:22.947Z,17.90
2022-08-23T03:57:00.090Z,17.90
2022-08-23T03:59:30.625Z,17.90
2022-08-23T04:01:58.405Z,17.90
2022-08-23T04:04:27.285Z,17.90
2022-08-23T04:09:55.217Z,17.90
2022-08-23T04:12:25.016Z,17.90
2022-08-23T04:14:53.352Z,17.90
2022-08-23T04:17:21.751Z,17.80
2022-08-23T04:19:49.954Z,17.90
2022-08-23T04:22:19.409Z,17.90
2022-08-23T04:24:46.404Z,18.00
2022-08-23T04:30:05.760Z,17.80
2022-08-23T04:32:35.734Z,17.80
2022-08-23T04:35:06.388Z,17.80
2022-08-23T04:37:34.869Z,17.80
2022-08-23T04:40:22.309Z,17.80
2022-08-23T04:42:51.802Z,17.70
2022-08-23T04:45:19.115Z,17.70
2022-08-23T04:52:19.756Z,17.70
2022-08-23T04:54:49.640Z,17.60
2022-08-23T04:57:35.638Z,17.80
2022-08-23T05:00:03.415Z,17.80
2022-08-23T05:02:30.774Z,17.80
2022-08-23T05:04:57.854Z,17.80
2022-08-23T05:07:40.074Z,17.80
2022-08-23T05:14:32.331Z,17.80
2022-08-23T05:16:59.852Z,17.90
2022-08-23T05:19:27.140Z,17.90
2022-08-23T05:21:57.033Z,18.00
2022-08-23T05:24:37.119Z,18.00
2022-08-23T05:27:07.227Z,18.10
2022-08-23T05:29:36.874Z,18.20
2022-08-23T05:36:29.295Z,18.30
2022-08-23T05:38:56.489Z,18.50
2022-08-23T05:41:33.367Z,18.60
2022-08-23T05:44:10.161Z,18.70
2022-08-23T05:46:41.933Z,18.80
2022-08-23T05:49:23.287Z,18.90
2022-08-23T05:51:51.963Z,19.00
2022-08-23T05:58:41.584Z,19.10
2022-08-23T06:01:10.494Z,19.30
2022-08-23T06:03:37.974Z,19.40
2022-08-23T06:06:06.678Z,19.40
2022-08-23T06:08:35.060Z,19.60
2022-08-23T06:11:11.689Z,19.60
2022-08-23T06:13:49.405Z,19.70
2022-08-23T06:20:41.917Z,19.80
2022-08-23T06:23:15.626Z,19.90
2022-08-23T06:25:42.797Z,20.00
2022-08-23T06:28:16.222Z,20.00
2022-08-23T06:30:43.119Z,20.10
2022-08-23T06:33:42.604Z,20.10
2022-08-23T06:43:25.089Z,20.50
2022-08-23T06:46:19.728Z,21.00
2022-08-23T06:48:48.036Z,21.40
2022-08-23T06:51:48.894Z,21.80
2022-08-23T06:54:23.237Z,22.00
2022-08-23T06:57:07.910Z,22.20
2022-08-23T07:03:21.249Z,22.30
2022-08-23T07:06:24.920Z,22.30
2022-08-23T07:08:52.285Z,22.30
2022-08-23T07:11:21.429Z,22.20
2022-08-23T07:13:49.489Z,22.30
2022-08-23T07:16:18.864Z,22.30
2022-08-23T07:18:49.270Z,22.40
2022-08-23T07:26:23.494Z,22.50
2022-08-23T07:28:50.913Z,22.70
2022-08-23T07:31:28.245Z,22.90
2022-08-23T07:33:58.854Z,23.10
2022-08-23T07:36:28.641Z,23.20
2022-08-23T07:38:56.902Z,23.40
2022-08-23T07:41:28.873Z,23.60
2022-08-23T07:49:05.464Z,24.20
2022-08-23T07:51:38.074Z,24.80
2022-08-23T07:54:08.832Z,25.00
2022-08-23T07:56:45.999Z,24.90
2022-08-23T07:59:35.049Z,24.90
2022-08-23T08:02:19.004Z,24.80
2022-08-23T08:04:46.126Z,24.80
2022-08-23T08:22:49.200Z,24.80
2022-08-23T08:25:19.628Z,25.90
2022-08-23T08:27:49.789Z,26.40
2022-08-23T08:30:16.854Z,26.90
2022-08-23T08:32:47.501Z,27.30
2022-08-23T08:35:15.824Z,27.90
2022-08-23T08:37:43.785Z,28.20
2022-08-23T08:45:26.529Z,28.90
2022-08-23T08:48:13.486Z,29.40
2022-08-23T08:50:51.765Z,29.60
2022-08-23T08:53:22.883Z,29.90
2022-08-23T08:56:32.353Z,30.20
2022-08-23T08:59:13.270Z,30.50
2022-08-23T09:04:23.506Z,30.90
2022-08-23T09:07:09.837Z,31.30
2022-08-23T09:10:06.427Z,31.70
2022-08-23T09:12:56.985Z,32.00
2022-08-23T09:15:38.223Z,32.20
2022-08-23T09:18:15.505Z,32.50
2022-08-23T09:24:21.061Z,32.80
2022-08-23T09:26:58.955Z,32.80
2022-08-23T09:29:31.562Z,32.50
2022-08-23T09:32:03.163Z,32.50
2022-08-23T09:34:38.147Z,32.40
2022-08-23T09:37:15.997Z,32.10
2022-08-23T09:39:49.096Z,31.80
2022-08-23T09:45:37.179Z,31.80
2022-08-23T09:48:13.007Z,31.80
2022-08-23T09:50:54.515Z,31.80
2022-08-23T09:53:27.582Z,31.80
2022-08-23T09:55:57.956Z,32.20
2022-08-23T09:58:43.034Z,32.60
2022-08-23T10:04:38.558Z,33.20
2022-08-23T10:07:27.262Z,33.30
2022-08-23T10:10:17.497Z,33.80
2022-08-23T10:12:46.112Z,34.00
2022-08-23T10:15:15.253Z,34.10
2022-08-23T10:18:02.523Z,34.00
2022-08-23T10:23:42.719Z,34.00
2022-08-23T10:26:24.464Z,34.50
2022-08-23T10:29:20.732Z,34.60
2022-08-23T10:31:59.123Z,34.70
2022-08-23T10:35:03.118Z,34.90
2022-08-23T10:37:43.501Z,35.10
2022-08-23T10:56:23.458Z,35.10
2022-08-23T10:58:59.987Z,35.70
2022-08-23T11:02:08.161Z,35.60
2022-08-23T11:04:46.639Z,35.60
2022-08-23T11:07:37.638Z,35.90
2022-08-23T11:10:19.081Z,36.20
2022-08-23T11:18:39.244Z,35.90
2022-08-23T11:21:18.144Z,35.90
2022-08-23T11:23:57.905Z,35.90
2022-08-23T11:26:28.012Z,35.70
2022-08-23T11:29:22.876Z,35.60
2022-08-23T11:32:20.726Z,35.80
2022-08-23T11:40:51.318Z,35.80
2022-08-23T11:43:32.097Z,35.70
2022-08-23T11:46:25.221Z,35.70
2022-08-23T11:49:30.685Z,35.60
2022-08-23T11:52:52.493Z,35.70
2022-08-23T11:55:42.465Z,35.60
2022-08-23T12:03:59.473Z,35.10
2022-08-23T12:06:27.112Z,35.30
2022-08-23T12:09:01.682Z,35.10
2022-08-23T12:11:56.609Z,34.90
2022-08-23T12:14:51.069Z,34.60
2022-08-23T12:17:25.036Z,34.40
2022-08-23T12:23:50.690Z,34.40
2022-08-23T12:26:26.810Z,34.30
2022-08-23T12:29:32.244Z,34.30
2022-08-23T12:32:30.443Z,34.30
2022-08-23T12:35:19.020Z,34.10
2022-08-23T12:38:08.404Z,33.80
2022-08-23T12:56:03.640Z,32.60
2022-08-23T12:58:34.307Z,30.30
2022-08-23T13:01:06.220Z,30.20
2022-08-23T13:03:43.835Z,30.30
2022-08-23T13:06:18.387Z,30.20
2022-08-23T13:08:54.129Z,30.30
2022-08-23T13:14:37.899Z,29.90
2022-08-23T13:17:30.925Z,29.90
2022-08-23T13:20:07.869Z,30.00
2022-08-23T13:22:39.269Z,29.90
2022-08-23T13:25:28.862Z,29.80
2022-08-23T13:28:23.907Z,29.50
2022-08-23T13:36:21.890Z,29.00
2022-08-23T13:38:50.179Z,28.60
2022-08-23T13:41:38.527Z,28.30
2022-08-23T13:44:08.276Z,28.30
2022-08-23T13:46:45.071Z,28.40
2022-08-23T13:49:28.174Z,28.20
2022-08-23T13:58:32.498Z,28.20
2022-08-23T14:01:03.591Z,28.10
2022-08-23T14:03:32.082Z,27.90
2022-08-23T14:05:59.277Z,27.70
2022-08-23T14:08:30.834Z,27.30
2022-08-23T14:11:01.085Z,27.10
2022-08-23T14:13:33.956Z,26.80
2022-08-23T14:21:41.988Z,26.90
2022-08-23T14:24:09.141Z,27.00
2022-08-23T14:26:37.824Z,26.90
2022-08-23T14:29:21.584Z,26.60
2022-08-23T14:31:52.071Z,26.50
2022-08-23T14:52:06.021Z,26.30
2022-08-23T14:54:33.643Z,26.10
2022-08-23T14:57:00.664Z,26.00
2022-08-23T14:59:29.106Z,25.90
2022-08-23T15:01:57.318Z,25.90
2022-08-23T15:04:34.215Z,25.80
2022-08-23T15:07:19.300Z,25.70
2022-08-23T15:14:19.629Z,25.70
2022-08-23T15:16:47.286Z,25.60
2022-08-23T15:19:14.303Z,25.60
2022-08-23T15:21:41.568Z,25.60
2022-08-23T15:24:08.943Z,25.60
2022-08-23T15:26:36.286Z,25.60
2022-08-23T15:29:05.213Z,25.60
2022-08-23T15:31:33.170Z,25.60
2022-08-23T15:38:19.948Z,25.40
2022-08-23T15:40:48.432Z,25.40
2022-08-23T15:43:15.997Z,25.20
2022-08-23T15:45:43.159Z,25.10
2022-08-23T15:48:25.460Z,25.10
2022-08-23T15:50:54.056Z,25.10
2022-08-23T15:53:22.059Z,25.10
2022-08-23T15:58:30.193Z,25.10
2022-08-23T16:00:56.945Z,24.90
2022-08-23T16:03:24.688Z,24.90
2022-08-23T16:05:53.337Z,24.80
2022-08-23T16:08:35.146Z,24.70
2022-08-23T16:11:13.327Z,24.60
2022-08-23T16:13:51.638Z,24.40
2022-08-23T16:29:32.525Z,24.40
2022-08-23T16:32:00.486Z,24.10
2022-08-23T16:34:27.361Z,24.10
2022-08-23T16:36:58.045Z,24.00
2022-08-23T16:39:27.080Z,23.90
2022-08-23T16:41:54.700Z,23.80
2022-08-23T16:44:21.457Z,23.80
2022-08-23T16:51:54.237Z,23.70
2022-08-23T16:54:20.962Z,23.70
2022-08-23T16:56:48.259Z,23.70
2022-08-23T16:59:15.079Z,23.70
2022-08-23T17:01:54.261Z,23.60
2022-08-23T17:04:24.695Z,23.60
2022-08-23T17:06:59.694Z,23.60
2022-08-23T17:27:36.280Z,23.20
2022-08-23T17:30:05.682Z,23.10
2022-08-23T17:32:41.885Z,23.00
2022-08-23T17:35:14.954Z,23.00
2022-08-23T17:37:44.530Z,23.00
2022-08-23T17:40:15.196Z,22.90
2022-08-23T17:42:43.234Z,22.80
2022-08-23T17:50:29.965Z,22.80
2022-08-23T17:52:57.212Z,22.60
2022-08-23T17:55:24.585Z,22.60
2022-08-23T17:57:55.096Z,22.50
2022-08-23T18:00:26.038Z,22.40
2022-08-23T18:02:53.046Z,22.30
2022-08-23T18:05:20.239Z,22.30
2022-08-23T18:30:54.722Z,21.70
2022-08-23T18:33:25.215Z,21.60
2022-08-23T18:35:59.262Z,21.50
2022-08-23T18:38:26.459Z,21.40
2022-08-23T18:40:53.502Z,21.40
2022-08-23T18:43:29.151Z,21.30
2022-08-23T18:46:04.941Z,21.20
2022-08-23T18:53:36.368Z,21.10
2022-08-23T18:56:04.171Z,21.00
2022-08-23T18:58:31.182Z,20.90
2022-08-23T19:00:58.196Z,20.90
2022-08-23T19:03:25.511Z,20.80
2022-08-23T19:05:52.556Z,20.80
2022-08-23T19:08:19.978Z,20.70
2022-08-23T19:14:52.676Z,20.70
2022-08-23T19:17:19.796Z,20.60
2022-08-23T19:19:47.075Z,20.60
2022-08-23T19:22:14.023Z,20.60
2022-08-23T19:24:41.756Z,20.60
2022-08-23T19:27:09.358Z,20.50
2022-08-23T19:29:36.373Z,20.50
2022-08-23T19:50:23.844Z,20.40
2022-08-23T19:52:51.631Z,20.30
2022-08-23T19:55:19.379Z,20.30
2022-08-23T19:57:46.591Z,20.30
2022-08-23T20:00:19.119Z,20.30
2022-08-23T20:02:47.663Z,20.30
2022-08-23T20:05:15.248Z,20.20
2022-08-23T20:23:03.923Z,20.20
2022-08-23T20:25:31.136Z,20.10
2022-08-23T20:27:58.785Z,20.10
2022-08-23T20:30:25.782Z,20.10
2022-08-23T20:32:52.719Z,20.10
2022-08-23T20:35:19.449Z,20.00
2022-08-23T20:37:46.224Z,20.00
2022-08-23T20:45:21.079Z,19.90
2022-08-23T20:47:47.976Z,19.90
2022-08-23T20:50:15.396Z,19.90
2022-08-23T20:52:42.698Z,19.80
2022-08-23T20:55:11.041Z,19.80
2022-08-23T20:57:38.813Z,19.80
2022-08-23T21:00:07.519Z,19.80
2022-08-23T21:07:35.175Z,19.70
2022-08-23T21:10:04.603Z,19.80
2022-08-23T21:12:31.391Z,19.80
2022-08-23T21:14:58.009Z,19.80
2022-08-23T21:17:24.878Z,19.80
2022-08-23T21:19:51.596Z,19.80
2022-08-23T21:22:18.519Z,19.70
2022-08-23T21:27:32.909Z,19.80
2022-08-23T21:29:59.592Z,19.70
2022-08-23T21:32:27.371Z,19.70
2022-08-23T21:34:54.955Z,19.70
2022-08-23T21:37:22.049Z,19.70
2022-08-23T21:39:49.753Z,19.60
2022-08-23T21:42:23.074Z,19.60
2022-08-23T21:49:16.374Z,19.60
2022-08-23T21:51:44.825Z,19.60
2022-08-23T21:54:13.289Z,19.60
2022-08-23T21:56:41.257Z,19.60
2022-08-23T21:59:11.325Z,19.50
2022-08-23T22:01:38.618Z,19.50
2022-08-23T22:04:08.793Z,19.50
2022-08-23T22:11:45.868Z,19.50
2022-08-23T22:14:19.610Z,19.40
2022-08-23T22:16:48.769Z,19.40
2022-08-23T22:19:22.531Z,19.40
2022-08-23T22:21:53.289Z,19.30
2022-08-23T22:24:25.240Z,19.40
2022-08-23T22:26:54.242Z,19.40
2022-08-23T22:33:43.666Z,19.30
2022-08-23T22:36:17.707Z,19.30
2022-08-23T22:38:45.490Z,19.30
2022-08-23T22:41:17.004Z,19.20
2022-08-23T22:43:44.399Z,19.20
2022-08-23T22:46:11.760Z,19.20
2022-08-23T22:48:38.635Z,19.20
2022-08-23T22:53:55.627Z,19.10
2022-08-23T22:56:32.372Z,19.10
2022-08-23T22:58:59.493Z,19.20
2022-08-23T23:01:30.019Z,19.20
2022-08-23T23:03:59.629Z,19.10
2022-08-23T23:06:27.590Z,19.10
2022-08-23T23:08:55.633Z,19.10
2022-08-23T23:19:24.622Z,18.90
2022-08-23T23:21:53.934Z,18.90
2022-08-23T23:24:23.788Z,18.80
2022-08-23T23:26:51.297Z,18.80
2022-08-23T23:29:19.372Z,18.80
2022-08-23T23:31:46.455Z,18.80
2022-08-23T23:34:14.298Z,18.70
2022-08-23T23:41:45.359Z,18.60
2022-08-23T23:44:12.346Z,18.60
2022-08-23T23:46:39.621Z,18.50
2022-08-23T23:49:06.510Z,18.40
2022-08-23T23:51:33.645Z,18.40
2022-08-23T23:54:01.256Z,18.40
2022-08-23T23:56:30.132Z,18.30
